sensor_id;sensor_type;location;lat;lon;timestamp;pressure;altitude;pressure_sealevel;temperature;humidity
18795;BME280;29610;49.022;12.114;2023-05-07T00:00:23;97715.63;;;13.23;100.00
18795;BME280;29610;49.022;12.114;2023-05-07T00:03:12;97709.50;;;13.27;100.00
18795;BME280;29610;49.022;12.114;2023-05-07T00:06:01;97718.25;;;12.99;100.00
18795;BME280;29610;49.022;12.114;2023-05-07T00:08:51;97714.34;;;13.09;100.00
18795;BME280;29610;49.022;12.114;2023-05-07T00:11:40;97711.50;;;12.85;100.00
18795;BME280;29610;49.022;12.114;2023-05-07T00:14:29;97719.09;;;12.79;100.00
18795;BME280;29610;49.022;12.114;2023-05-07T00:17:17;97715.06;;;12.65;100.00
18795;BME280;29610;49.022;12.114;2023-05-07T00:20:08;97720.44;;;12.53;100.00
18795;BME280;29610;49.022;12.114;2023-05-07T00:22:57;97714.97;;;12.53;100.00
18795;BME280;29610;49.022;12.114;2023-05-07T00:25:47;97720.75;;;12.51;100.00
18795;BME280;29610;49.022;12.114;2023-05-07T00:28:37;97720.38;;;12.61;100.00
18795;BME280;29610;49.022;12.114;2023-05-07T00:31:26;97716.44;;;12.50;100.00
18795;BME280;29610;49.022;12.114;2023-05-07T00:34:15;97710.81;;;12.35;100.00
18795;BME280;29610;49.022;12.114;2023-05-07T00:37:04;97715.13;;;12.36;100.00
18795;BME280;29610;49.022;12.114;2023-05-07T00:39:54;97722.56;;;12.27;100.00
18795;BME280;29610;49.022;12.114;2023-05-07T00:42:44;97720.19;;;12.25;100.00
18795;BME280;29610;49.022;12.114;2023-05-07T00:45:35;97723.00;;;12.29;100.00
18795;BME280;29610;49.022;12.114;2023-05-07T00:48:24;97724.53;;;12.38;100.00
18795;BME280;29610;49.022;12.114;2023-05-07T00:51:14;97720.03;;;12.42;100.00
18795;BME280;29610;49.022;12.114;2023-05-07T00:54:03;97713.72;;;12.30;100.00
18795;BME280;29610;49.022;12.114;2023-05-07T00:56:54;97724.97;;;12.49;100.00
18795;BME280;29610;49.022;12.114;2023-05-07T00:59:44;97728.94;;;12.51;100.00
18795;BME280;29610;49.022;12.114;2023-05-07T01:02:33;97731.81;;;12.34;100.00
18795;BME280;29610;49.022;12.114;2023-05-07T01:05:25;97734.53;;;12.34;100.00
18795;BME280;29610;49.022;12.114;2023-05-07T01:08:15;97731.94;;;12.38;100.00
18795;BME280;29610;49.022;12.114;2023-05-07T01:11:06;97733.06;;;12.57;100.00
18795;BME280;29610;49.022;12.114;2023-05-07T01:13:55;97730.41;;;12.49;100.00
18795;BME280;29610;49.022;12.114;2023-05-07T01:16:46;97729.75;;;12.52;100.00
18795;BME280;29610;49.022;12.114;2023-05-07T01:19:36;97735.88;;;12.49;100.00
18795;BME280;29610;49.022;12.114;2023-05-07T01:22:32;97731.63;;;12.39;100.00
18795;BME280;29610;49.022;12.114;2023-05-07T01:25:22;97740.66;;;12.31;100.00
18795;BME280;29610;49.022;12.114;2023-05-07T01:28:13;97730.13;;;12.42;100.00
18795;BME280;29610;49.022;12.114;2023-05-07T01:31:05;97723.91;;;12.41;100.00
18795;BME280;29610;49.022;12.114;2023-05-07T01:33:57;97726.72;;;12.65;100.00
18795;BME280;29610;49.022;12.114;2023-05-07T01:36:48;97717.03;;;12.56;100.00
18795;BME280;29610;49.022;12.114;2023-05-07T01:39:39;97714.59;;;12.42;100.00
18795;BME280;29610;49.022;12.114;2023-05-07T01:42:29;97715.38;;;12.22;100.00
18795;BME280;29610;49.022;12.114;2023-05-07T01:45:19;97715.84;;;12.24;100.00
18795;BME280;29610;49.022;12.114;2023-05-07T01:48:12;97720.44;;;12.32;100.00
18795;BME280;29610;49.022;12.114;2023-05-07T01:51:03;97724.28;;;12.31;100.00
18795;BME280;29610;49.022;12.114;2023-05-07T01:53:52;97715.25;;;12.39;100.00
18795;BME280;29610;49.022;12.114;2023-05-07T01:56:42;97723.44;;;12.39;100.00
18795;BME280;29610;49.022;12.114;2023-05-07T01:59:31;97731.00;;;12.54;100.00
18795;BME280;29610;49.022;12.114;2023-05-07T02:02:20;97733.88;;;12.58;100.00
18795;BME280;29610;49.022;12.114;2023-05-07T02:05:10;97720.00;;;12.83;100.00
18795;BME280;29610;49.022;12.114;2023-05-07T02:08:00;97718.78;;;12.93;100.00
18795;BME280;29610;49.022;12.114;2023-05-07T02:10:50;97729.16;;;12.67;100.00
18795;BME280;29610;49.022;12.114;2023-05-07T02:13:42;97730.13;;;12.62;100.00
18795;BME280;29610;49.022;12.114;2023-05-07T02:16:31;97725.50;;;12.63;100.00
18795;BME280;29610;49.022;12.114;2023-05-07T02:19:20;97730.41;;;12.69;100.00
18795;BME280;29610;49.022;12.114;2023-05-07T02:22:10;97737.38;;;12.79;100.00
18795;BME280;29610;49.022;12.114;2023-05-07T02:24:59;97733.59;;;12.92;100.00
18795;BME280;29610;49.022;12.114;2023-05-07T02:27:47;97720.06;;;12.95;100.00
18795;BME280;29610;49.022;12.114;2023-05-07T02:30:38;97730.31;;;12.98;100.00
18795;BME280;29610;49.022;12.114;2023-05-07T02:33:28;97721.22;;;12.74;100.00
18795;BME280;29610;49.022;12.114;2023-05-07T02:36:18;97714.91;;;12.61;100.00
18795;BME280;29610;49.022;12.114;2023-05-07T02:39:16;97719.84;;;12.68;100.00
18795;BME280;29610;49.022;12.114;2023-05-07T02:42:05;97722.22;;;12.69;100.00
18795;BME280;29610;49.022;12.114;2023-05-07T02:44:54;97712.13;;;12.70;100.00
18795;BME280;29610;49.022;12.114;2023-05-07T02:47:44;97713.66;;;12.59;100.00
18795;BME280;29610;49.022;12.114;2023-05-07T02:50:34;97712.38;;;12.56;100.00
18795;BME280;29610;49.022;12.114;2023-05-07T02:53:23;97720.19;;;12.46;100.00
18795;BME280;29610;49.022;12.114;2023-05-07T02:56:13;97712.00;;;12.46;100.00
18795;BME280;29610;49.022;12.114;2023-05-07T02:59:02;97705.34;;;12.55;100.00
18795;BME280;29610;49.022;12.114;2023-05-07T03:01:54;97699.75;;;12.52;100.00
18795;BME280;29610;49.022;12.114;2023-05-07T03:04:44;97705.78;;;12.57;100.00
18795;BME280;29610;49.022;12.114;2023-05-07T03:07:33;97703.63;;;12.71;100.00
18795;BME280;29610;49.022;12.114;2023-05-07T03:10:22;97703.31;;;12.85;100.00
18795;BME280;29610;49.022;12.114;2023-05-07T03:13:10;97706.84;;;12.85;100.00
18795;BME280;29610;49.022;12.114;2023-05-07T03:15:59;97704.53;;;12.75;100.00
18795;BME280;29610;49.022;12.114;2023-05-07T03:18:50;97703.81;;;12.66;100.00
18795;BME280;29610;49.022;12.114;2023-05-07T03:21:40;97707.28;;;12.55;100.00
18795;BME280;29610;49.022;12.114;2023-05-07T03:24:28;97706.88;;;12.65;100.00
18795;BME280;29610;49.022;12.114;2023-05-07T03:27:18;97708.13;;;12.47;100.00
18795;BME280;29610;49.022;12.114;2023-05-07T03:30:09;97699.81;;;12.64;100.00
18795;BME280;29610;49.022;12.114;2023-05-07T03:32:59;97706.75;;;12.61;100.00
18795;BME280;29610;49.022;12.114;2023-05-07T03:35:48;97701.16;;;12.58;100.00
18795;BME280;29610;49.022;12.114;2023-05-07T03:38:42;97702.34;;;12.48;100.00
18795;BME280;29610;49.022;12.114;2023-05-07T03:41:33;97702.16;;;12.53;100.00
18795;BME280;29610;49.022;12.114;2023-05-07T03:44:22;97709.84;;;12.51;100.00
18795;BME280;29610;49.022;12.114;2023-05-07T03:47:12;97708.75;;;12.52;100.00
18795;BME280;29610;49.022;12.114;2023-05-07T03:50:01;97715.09;;;12.77;100.00
18795;BME280;29610;49.022;12.114;2023-05-07T03:52:50;97717.25;;;12.71;100.00
18795;BME280;29610;49.022;12.114;2023-05-07T03:55:43;97721.91;;;12.71;100.00
18795;BME280;29610;49.022;12.114;2023-05-07T03:58:32;97720.41;;;12.73;100.00
18795;BME280;29610;49.022;12.114;2023-05-07T04:01:25;97729.25;;;12.70;100.00
18795;BME280;29610;49.022;12.114;2023-05-07T04:04:15;97725.34;;;12.59;100.00
18795;BME280;29610;49.022;12.114;2023-05-07T04:07:04;97726.72;;;12.65;100.00
18795;BME280;29610;49.022;12.114;2023-05-07T04:09:58;97740.16;;;12.70;100.00
18795;BME280;29610;49.022;12.114;2023-05-07T04:12:48;97743.28;;;12.40;100.00
18795;BME280;29610;49.022;12.114;2023-05-07T04:15:41;97739.13;;;12.42;100.00
18795;BME280;29610;49.022;12.114;2023-05-07T04:18:33;97743.84;;;12.54;100.00
18795;BME280;29610;49.022;12.114;2023-05-07T04:21:21;97739.97;;;12.75;100.00
18795;BME280;29610;49.022;12.114;2023-05-07T04:24:11;97744.25;;;12.64;100.00
18795;BME280;29610;49.022;12.114;2023-05-07T04:27:01;97739.13;;;12.63;100.00
18795;BME280;29610;49.022;12.114;2023-05-07T04:29:51;97746.81;;;12.61;100.00
18795;BME280;29610;49.022;12.114;2023-05-07T04:32:43;97745.56;;;12.58;100.00
18795;BME280;29610;49.022;12.114;2023-05-07T04:35:33;97751.03;;;12.58;100.00
18795;BME280;29610;49.022;12.114;2023-05-07T04:38:22;97747.81;;;12.56;100.00
18795;BME280;29610;49.022;12.114;2023-05-07T04:41:13;97748.28;;;12.79;100.00
18795;BME280;29610;49.022;12.114;2023-05-07T04:44:03;97750.19;;;12.99;100.00
18795;BME280;29610;49.022;12.114;2023-05-07T04:46:55;97738.53;;;13.43;100.00
18795;BME280;29610;49.022;12.114;2023-05-07T04:49:45;97737.09;;;13.58;100.00
18795;BME280;29610;49.022;12.114;2023-05-07T04:52:33;97745.63;;;13.80;100.00
18795;BME280;29610;49.022;12.114;2023-05-07T04:55:23;97742.69;;;13.97;100.00
18795;BME280;29610;49.022;12.114;2023-05-07T04:58:12;97743.03;;;14.20;100.00
18795;BME280;29610;49.022;12.114;2023-05-07T05:01:02;97744.59;;;14.21;100.00
18795;BME280;29610;49.022;12.114;2023-05-07T05:03:53;97747.81;;;14.23;100.00
18795;BME280;29610;49.022;12.114;2023-05-07T05:06:42;97748.50;;;14.32;100.00
18795;BME280;29610;49.022;12.114;2023-05-07T05:09:32;97759.44;;;14.20;100.00
18795;BME280;29610;49.022;12.114;2023-05-07T05:12:22;97756.81;;;14.35;100.00
18795;BME280;29610;49.022;12.114;2023-05-07T05:15:12;97754.63;;;14.17;100.00
18795;BME280;29610;49.022;12.114;2023-05-07T05:18:02;97766.97;;;14.75;100.00
18795;BME280;29610;49.022;12.114;2023-05-07T05:20:53;97768.47;;;14.72;100.00
18795;BME280;29610;49.022;12.114;2023-05-07T05:23:43;97766.75;;;14.80;100.00
18795;BME280;29610;49.022;12.114;2023-05-07T05:26:34;97770.41;;;14.72;100.00
18795;BME280;29610;49.022;12.114;2023-05-07T05:29:26;97766.69;;;14.64;100.00
18795;BME280;29610;49.022;12.114;2023-05-07T05:32:17;97782.66;;;14.38;100.00
18795;BME280;29610;49.022;12.114;2023-05-07T05:35:09;97773.19;;;14.59;100.00
18795;BME280;29610;49.022;12.114;2023-05-07T05:38:00;97772.16;;;14.52;100.00
18795;BME280;29610;49.022;12.114;2023-05-07T05:40:49;97775.13;;;14.23;100.00
18795;BME280;29610;49.022;12.114;2023-05-07T05:43:38;97776.88;;;14.79;100.00
18795;BME280;29610;49.022;12.114;2023-05-07T05:46:31;97770.66;;;14.66;100.00
18795;BME280;29610;49.022;12.114;2023-05-07T05:49:23;97768.94;;;14.62;100.00
18795;BME280;29610;49.022;12.114;2023-05-07T05:52:14;97767.34;;;15.01;100.00
18795;BME280;29610;49.022;12.114;2023-05-07T05:55:07;97766.47;;;15.24;100.00
18795;BME280;29610;49.022;12.114;2023-05-07T05:57:57;97764.44;;;15.49;100.00
18795;BME280;29610;49.022;12.114;2023-05-07T06:00:49;97766.63;;;15.59;100.00
18795;BME280;29610;49.022;12.114;2023-05-07T06:03:42;97769.91;;;15.49;100.00
18795;BME280;29610;49.022;12.114;2023-05-07T06:06:34;97767.13;;;15.06;100.00
18795;BME280;29610;49.022;12.114;2023-05-07T06:09:25;97778.22;;;15.52;100.00
18795;BME280;29610;49.022;12.114;2023-05-07T06:12:15;97776.09;;;15.61;100.00
18795;BME280;29610;49.022;12.114;2023-05-07T06:15:05;97772.25;;;15.93;100.00
18795;BME280;29610;49.022;12.114;2023-05-07T06:17:54;97777.88;;;15.69;100.00
18795;BME280;29610;49.022;12.114;2023-05-07T06:20:45;97787.53;;;15.63;100.00
18795;BME280;29610;49.022;12.114;2023-05-07T06:23:42;97790.19;;;15.91;100.00
18795;BME280;29610;49.022;12.114;2023-05-07T06:26:32;97799.38;;;16.14;100.00
18795;BME280;29610;49.022;12.114;2023-05-07T06:29:22;97791.69;;;16.35;100.00
18795;BME280;29610;49.022;12.114;2023-05-07T06:32:14;97793.06;;;16.29;100.00
18795;BME280;29610;49.022;12.114;2023-05-07T06:35:06;97800.16;;;16.46;100.00
18795;BME280;29610;49.022;12.114;2023-05-07T06:38:00;97807.09;;;16.74;100.00
18795;BME280;29610;49.022;12.114;2023-05-07T06:40:50;97804.97;;;16.83;100.00
18795;BME280;29610;49.022;12.114;2023-05-07T06:43:44;97803.53;;;17.27;100.00
18795;BME280;29610;49.022;12.114;2023-05-07T06:46:52;97811.34;;;17.64;100.00
18795;BME280;29610;49.022;12.114;2023-05-07T06:49:41;97802.47;;;18.15;100.00
18795;BME280;29610;49.022;12.114;2023-05-07T06:52:35;97800.16;;;18.66;100.00
18795;BME280;29610;49.022;12.114;2023-05-07T06:55:25;97806.16;;;19.01;100.00
18795;BME280;29610;49.022;12.114;2023-05-07T06:58:16;97813.53;;;19.23;100.00
18795;BME280;29610;49.022;12.114;2023-05-07T07:01:04;97813.78;;;18.85;100.00
18795;BME280;29610;49.022;12.114;2023-05-07T07:03:56;97815.94;;;18.24;100.00
18795;BME280;29610;49.022;12.114;2023-05-07T07:06:46;97809.97;;;17.54;100.00
18795;BME280;29610;49.022;12.114;2023-05-07T07:09:36;97810.66;;;17.89;100.00
18795;BME280;29610;49.022;12.114;2023-05-07T07:12:29;97812.25;;;17.71;100.00
18795;BME280;29610;49.022;12.114;2023-05-07T07:15:19;97803.94;;;17.87;100.00
18795;BME280;29610;49.022;12.114;2023-05-07T07:37:22;97806.78;;;18.87;100.00
18795;BME280;29610;49.022;12.114;2023-05-07T07:40:20;97810.28;;;18.58;100.00
18795;BME280;29610;49.022;12.114;2023-05-07T07:43:15;97810.22;;;18.81;100.00
18795;BME280;29610;49.022;12.114;2023-05-07T07:46:15;97808.56;;;18.76;100.00
18795;BME280;29610;49.022;12.114;2023-05-07T07:49:09;97804.84;;;18.91;100.00
18795;BME280;29610;49.022;12.114;2023-05-07T07:52:09;97815.44;;;18.89;100.00
18795;BME280;29610;49.022;12.114;2023-05-07T07:55:09;97809.22;;;18.96;100.00
18795;BME280;29610;49.022;12.114;2023-05-07T07:58:03;97809.63;;;19.24;100.00
18795;BME280;29610;49.022;12.114;2023-05-07T08:01:01;97813.81;;;19.44;100.00
18795;BME280;29610;49.022;12.114;2023-05-07T08:03:56;97804.22;;;20.04;100.00
18795;BME280;29610;49.022;12.114;2023-05-07T08:06:53;97803.00;;;20.42;100.00
18795;BME280;29610;49.022;12.114;2023-05-07T08:09:47;97803.63;;;20.25;100.00
18795;BME280;29610;49.022;12.114;2023-05-07T08:12:49;97800.78;;;20.65;100.00
18795;BME280;29610;49.022;12.114;2023-05-07T08:15:44;97804.88;;;19.91;100.00
18795;BME280;29610;49.022;12.114;2023-05-07T08:18:39;97805.31;;;19.60;100.00
18795;BME280;29610;49.022;12.114;2023-05-07T08:21:33;97793.66;;;19.37;100.00
18795;BME280;29610;49.022;12.114;2023-05-07T08:24:34;97799.91;;;19.67;100.00
18795;BME280;29610;49.022;12.114;2023-05-07T08:27:29;97798.31;;;20.02;100.00
18795;BME280;29610;49.022;12.114;2023-05-07T08:30:29;97805.84;;;19.69;100.00
18795;BME280;29610;49.022;12.114;2023-05-07T08:33:23;97813.53;;;20.26;100.00
18795;BME280;29610;49.022;12.114;2023-05-07T08:37:02;97813.25;;;20.01;100.00
18795;BME280;29610;49.022;12.114;2023-05-07T08:45:16;97812.06;;;20.43;100.00
18795;BME280;29610;49.022;12.114;2023-05-07T08:49:50;97817.75;;;20.64;100.00
18795;BME280;29610;49.022;12.114;2023-05-07T08:53:21;97826.47;;;20.69;100.00
18795;BME280;29610;49.022;12.114;2023-05-07T08:56:25;97818.53;;;21.25;100.00
18795;BME280;29610;49.022;12.114;2023-05-07T08:59:19;97818.44;;;21.01;100.00
18795;BME280;29610;49.022;12.114;2023-05-07T09:02:12;97822.09;;;21.19;100.00
18795;BME280;29610;49.022;12.114;2023-05-07T09:05:09;97828.88;;;21.35;100.00
18795;BME280;29610;49.022;12.114;2023-05-07T09:08:15;97830.97;;;21.73;100.00
18795;BME280;29610;49.022;12.114;2023-05-07T09:11:09;97823.56;;;21.92;100.00
18795;BME280;29610;49.022;12.114;2023-05-07T09:14:09;97826.38;;;22.30;100.00
18795;BME280;29610;49.022;12.114;2023-05-07T09:17:05;97829.59;;;21.25;100.00
18795;BME280;29610;49.022;12.114;2023-05-07T09:31:16;97813.72;;;22.50;100.00
18795;BME280;29610;49.022;12.114;2023-05-07T09:35:26;97809.78;;;22.44;100.00
18795;BME280;29610;49.022;12.114;2023-05-07T09:39:39;97815.69;;;22.99;100.00
18795;BME280;29610;49.022;12.114;2023-05-07T09:52:24;97806.63;;;22.49;100.00
18795;BME280;29610;49.022;12.114;2023-05-07T09:56:15;97793.38;;;23.41;100.00
18795;BME280;29610;49.022;12.114;2023-05-07T09:59:51;97797.50;;;22.35;100.00
18795;BME280;29610;49.022;12.114;2023-05-07T10:03:10;97802.22;;;21.89;100.00
18795;BME280;29610;49.022;12.114;2023-05-07T10:06:15;97801.88;;;22.15;100.00
18795;BME280;29610;49.022;12.114;2023-05-07T10:09:14;97797.50;;;22.63;100.00
18795;BME280;29610;49.022;12.114;2023-05-07T10:12:09;97809.00;;;22.37;100.00
18795;BME280;29610;49.022;12.114;2023-05-07T10:15:08;97806.22;;;22.33;100.00
18795;BME280;29610;49.022;12.114;2023-05-07T10:18:13;97797.53;;;22.52;100.00
18795;BME280;29610;49.022;12.114;2023-05-07T10:21:19;97797.50;;;22.87;100.00
18795;BME280;29610;49.022;12.114;2023-05-07T10:24:21;97796.72;;;22.69;100.00
18795;BME280;29610;49.022;12.114;2023-05-07T10:27:23;97803.03;;;22.17;100.00
18795;BME280;29610;49.022;12.114;2023-05-07T10:30:32;97803.47;;;22.68;100.00
18795;BME280;29610;49.022;12.114;2023-05-07T10:33:31;97795.25;;;23.62;100.00
18795;BME280;29610;49.022;12.114;2023-05-07T10:36:34;97792.28;;;24.04;100.00
18795;BME280;29610;49.022;12.114;2023-05-07T10:39:33;97797.81;;;23.17;100.00
18795;BME280;29610;49.022;12.114;2023-05-07T10:48:21;97771.88;;;23.63;100.00
18795;BME280;29610;49.022;12.114;2023-05-07T11:03:32;97768.00;;;25.97;100.00
18795;BME280;29610;49.022;12.114;2023-05-07T11:07:53;97757.41;;;26.15;100.00
18795;BME280;29610;49.022;12.114;2023-05-07T11:12:09;97761.41;;;26.37;100.00
18795;BME280;29610;49.022;12.114;2023-05-07T11:15:46;97757.84;;;26.83;100.00
18795;BME280;29610;49.022;12.114;2023-05-07T11:29:28;97769.31;;;23.10;100.00
18795;BME280;29610;49.022;12.114;2023-05-07T11:33:30;97760.44;;;24.63;100.00
18795;BME280;29610;49.022;12.114;2023-05-07T11:37:41;97772.81;;;24.07;100.00
18795;BME280;29610;49.022;12.114;2023-05-07T11:41:36;97756.03;;;25.06;100.00
18795;BME280;29610;49.022;12.114;2023-05-07T11:54:16;97769.31;;;24.92;100.00
18795;BME280;29610;49.022;12.114;2023-05-07T12:11:32;97762.94;;;23.96;100.00
18795;BME280;29610;49.022;12.114;2023-05-07T12:15:54;97762.66;;;22.79;100.00
18795;BME280;29610;49.022;12.114;2023-05-07T12:24:56;97757.03;;;23.11;100.00
18795;BME280;29610;49.022;12.114;2023-05-07T12:29:06;97758.53;;;24.53;100.00
18795;BME280;29610;49.022;12.114;2023-05-07T12:32:36;97757.94;;;24.79;100.00
18795;BME280;29610;49.022;12.114;2023-05-07T12:36:03;97755.84;;;24.90;100.00
18795;BME280;29610;49.022;12.114;2023-05-07T12:39:21;97753.03;;;24.49;100.00
18795;BME280;29610;49.022;12.114;2023-05-07T12:42:42;97757.16;;;25.12;100.00
18795;BME280;29610;49.022;12.114;2023-05-07T12:46:09;97754.19;;;24.52;100.00
18795;BME280;29610;49.022;12.114;2023-05-07T12:49:07;97748.53;;;25.03;100.00
18795;BME280;29610;49.022;12.114;2023-05-07T12:52:01;97743.53;;;24.88;100.00
18795;BME280;29610;49.022;12.114;2023-05-07T12:55:26;97739.88;;;25.28;100.00
18795;BME280;29610;49.022;12.114;2023-05-07T12:58:32;97731.53;;;24.94;100.00
18795;BME280;29610;49.022;12.114;2023-05-07T13:01:49;97728.44;;;25.22;100.00
18795;BME280;29610;49.022;12.114;2023-05-07T13:05:32;97733.38;;;25.41;100.00
18795;BME280;29610;49.022;12.114;2023-05-07T13:08:40;97729.00;;;25.40;98.61
18795;BME280;29610;49.022;12.114;2023-05-07T13:12:16;97727.81;;;25.41;100.00
18795;BME280;29610;49.022;12.114;2023-05-07T13:15:50;97726.50;;;25.79;100.00
18795;BME280;29610;49.022;12.114;2023-05-07T13:19:12;97722.56;;;25.47;98.00
18795;BME280;29610;49.022;12.114;2023-05-07T13:23:02;97723.88;;;25.39;100.00
18795;BME280;29610;49.022;12.114;2023-05-07T13:26:02;97706.63;;;26.04;98.59
18795;BME280;29610;49.022;12.114;2023-05-07T13:29:56;97708.94;;;26.55;90.53
18795;BME280;29610;49.022;12.114;2023-05-07T13:33:11;97705.31;;;26.12;89.01
18795;BME280;29610;49.022;12.114;2023-05-07T13:36:11;97695.19;;;25.72;93.14
18795;BME280;29610;49.022;12.114;2023-05-07T13:39:31;97696.09;;;25.65;97.52
18795;BME280;29610;49.022;12.114;2023-05-07T13:42:26;97691.91;;;25.50;83.53
18795;BME280;29610;49.022;12.114;2023-05-07T13:45:45;97693.31;;;25.65;92.48
18795;BME280;29610;49.022;12.114;2023-05-07T13:48:45;97681.75;;;25.07;82.54
18795;BME280;29610;49.022;12.114;2023-05-07T13:52:04;97687.81;;;24.98;86.69
18795;BME280;29610;49.022;12.114;2023-05-07T13:55:05;97693.66;;;24.74;95.20
18795;BME280;29610;49.022;12.114;2023-05-07T13:58:01;97695.06;;;24.11;91.39
18795;BME280;29610;49.022;12.114;2023-05-07T14:00:57;97695.28;;;24.27;100.00
18795;BME280;29610;49.022;12.114;2023-05-07T14:03:52;97688.19;;;24.67;94.96
18795;BME280;29610;49.022;12.114;2023-05-07T14:06:49;97686.75;;;23.53;100.00
18795;BME280;29610;49.022;12.114;2023-05-07T14:09:46;97697.44;;;23.51;100.00
18795;BME280;29610;49.022;12.114;2023-05-07T14:12:45;97691.59;;;23.35;100.00
18795;BME280;29610;49.022;12.114;2023-05-07T14:15:43;97684.06;;;23.97;100.00
18795;BME280;29610;49.022;12.114;2023-05-07T14:18:42;97688.59;;;24.21;100.00
18795;BME280;29610;49.022;12.114;2023-05-07T14:21:51;97687.16;;;23.48;100.00
18795;BME280;29610;49.022;12.114;2023-05-07T14:35:41;97692.41;;;23.93;94.76
18795;BME280;29610;49.022;12.114;2023-05-07T14:39:07;97696.56;;;23.64;96.59
18795;BME280;29610;49.022;12.114;2023-05-07T14:42:45;97697.69;;;23.74;100.00
18795;BME280;29610;49.022;12.114;2023-05-07T14:46:11;97705.69;;;24.19;100.00
18795;BME280;29610;49.022;12.114;2023-05-07T14:58:24;97714.56;;;23.42;100.00
18795;BME280;29610;49.022;12.114;2023-05-07T15:01:39;97708.19;;;23.45;100.00
18795;BME280;29610;49.022;12.114;2023-05-07T15:04:51;97707.88;;;23.18;100.00
18795;BME280;29610;49.022;12.114;2023-05-07T15:07:49;97703.66;;;22.89;100.00
18795;BME280;29610;49.022;12.114;2023-05-07T15:10:43;97696.78;;;23.18;100.00
18795;BME280;29610;49.022;12.114;2023-05-07T15:13:38;97701.81;;;23.52;100.00
18795;BME280;29610;49.022;12.114;2023-05-07T15:16:32;97703.06;;;23.44;100.00
18795;BME280;29610;49.022;12.114;2023-05-07T15:19:29;97716.69;;;22.99;100.00
18795;BME280;29610;49.022;12.114;2023-05-07T15:22:25;97707.31;;;22.55;100.00
18795;BME280;29610;49.022;12.114;2023-05-07T15:25:21;97704.13;;;22.56;100.00
18795;BME280;29610;49.022;12.114;2023-05-07T15:28:15;97704.47;;;22.86;100.00
18795;BME280;29610;49.022;12.114;2023-05-07T15:31:34;97711.59;;;22.91;100.00
18795;BME280;29610;49.022;12.114;2023-05-07T15:34:55;97703.34;;;22.70;100.00
18795;BME280;29610;49.022;12.114;2023-05-07T15:38:38;97704.53;;;22.48;100.00
18795;BME280;29610;49.022;12.114;2023-05-07T15:41:42;97698.22;;;22.33;100.00
18795;BME280;29610;49.022;12.114;2023-05-07T15:45:24;97708.88;;;22.49;100.00
18795;BME280;29610;49.022;12.114;2023-05-07T15:48:57;97705.34;;;22.55;100.00
18795;BME280;29610;49.022;12.114;2023-05-07T15:52:24;97710.09;;;22.58;100.00
18795;BME280;29610;49.022;12.114;2023-05-07T15:56:08;97714.44;;;22.28;100.00
18795;BME280;29610;49.022;12.114;2023-05-07T15:59:37;97712.88;;;22.34;100.00
18795;BME280;29610;49.022;12.114;2023-05-07T16:03:23;97721.16;;;22.37;100.00
18795;BME280;29610;49.022;12.114;2023-05-07T16:06:58;97718.78;;;22.32;100.00
18795;BME280;29610;49.022;12.114;2023-05-07T16:11:31;97736.19;;;22.33;100.00
18795;BME280;29610;49.022;12.114;2023-05-07T16:15:01;97736.19;;;21.80;100.00
18795;BME280;29610;49.022;12.114;2023-05-07T16:19:14;97733.00;;;21.78;100.00
18795;BME280;29610;49.022;12.114;2023-05-07T16:23:12;97735.81;;;21.99;100.00
18795;BME280;29610;49.022;12.114;2023-05-07T16:27:23;97740.53;;;21.88;100.00
18795;BME280;29610;49.022;12.114;2023-05-07T16:30:54;97740.53;;;21.85;100.00
18795;BME280;29610;49.022;12.114;2023-05-07T16:35:10;97747.97;;;21.56;100.00
18795;BME280;29610;49.022;12.114;2023-05-07T16:54:26;97737.41;;;20.86;100.00
18795;BME280;29610;49.022;12.114;2023-05-07T16:58:27;97748.41;;;20.79;100.00
18795;BME280;29610;49.022;12.114;2023-05-07T17:01:59;97736.59;;;20.79;100.00
18795;BME280;29610;49.022;12.114;2023-05-07T17:05:00;97745.19;;;20.67;100.00
18795;BME280;29610;49.022;12.114;2023-05-07T17:08:00;97751.41;;;20.50;100.00
18795;BME280;29610;49.022;12.114;2023-05-07T17:11:02;97757.25;;;20.41;100.00
18795;BME280;29610;49.022;12.114;2023-05-07T17:14:54;97756.34;;;20.26;100.00
18795;BME280;29610;49.022;12.114;2023-05-07T17:17:42;97767.53;;;20.00;100.00
18795;BME280;29610;49.022;12.114;2023-05-07T17:20:34;97780.06;;;19.91;100.00
18795;BME280;29610;49.022;12.114;2023-05-07T17:23:22;97772.63;;;19.98;100.00
18795;BME280;29610;49.022;12.114;2023-05-07T17:26:13;97773.16;;;19.71;100.00
18795;BME280;29610;49.022;12.114;2023-05-07T17:29:02;97774.47;;;19.84;100.00
18795;BME280;29610;49.022;12.114;2023-05-07T17:31:51;97775.53;;;19.72;100.00
18795;BME280;29610;49.022;12.114;2023-05-07T17:34:40;97779.03;;;19.33;100.00
18795;BME280;29610;49.022;12.114;2023-05-07T17:37:29;97781.41;;;19.34;100.00
18795;BME280;29610;49.022;12.114;2023-05-07T17:40:48;97783.16;;;19.20;100.00
18795;BME280;29610;49.022;12.114;2023-05-07T17:43:37;97787.38;;;19.10;100.00
18795;BME280;29610;49.022;12.114;2023-05-07T17:46:26;97784.03;;;19.24;100.00
18795;BME280;29610;49.022;12.114;2023-05-07T17:49:15;97794.00;;;19.06;100.00
18795;BME280;29610;49.022;12.114;2023-05-07T17:52:05;97797.88;;;19.01;100.00
18795;BME280;29610;49.022;12.114;2023-05-07T17:54:55;97800.91;;;18.92;100.00
18795;BME280;29610;49.022;12.114;2023-05-07T17:57:46;97809.38;;;19.07;100.00
18795;BME280;29610;49.022;12.114;2023-05-07T18:00:35;97804.72;;;18.81;100.00